sensor_id;sensor_type;location;lat;lon;timestamp;P1;durP1;ratioP1;P2;durP2;ratioP2
27921;SDS011;15261;50.356;10.340;2023-04-30T00:02:25;12.30;;;11.10;;
27921;SDS011;15261;50.356;10.340;2023-04-30T00:04:51;12.98;;;11.63;;
27921;SDS011;15261;50.356;10.340;2023-04-30T00:07:16;12.98;;;11.68;;
27921;SDS011;15261;50.356;10.340;2023-04-30T00:09:42;13.13;;;11.75;;
27921;SDS011;15261;50.356;10.340;2023-04-30T00:12:07;14.38;;;12.10;;
27921;SDS011;15261;50.356;10.340;2023-04-30T00:14:33;13.55;;;11.63;;
27921;SDS011;15261;50.356;10.340;2023-04-30T00:16:58;14.48;;;11.82;;
27921;SDS011;15261;50.356;10.340;2023-04-30T00:19:24;13.25;;;11.38;;
27921;SDS011;15261;50.356;10.340;2023-04-30T00:24:44;14.60;;;11.88;;
27921;SDS011;15261;50.356;10.340;2023-04-30T00:27:10;13.45;;;11.98;;
27921;SDS011;15261;50.356;10.340;2023-04-30T00:29:35;13.43;;;12.02;;
27921;SDS011;15261;50.356;10.340;2023-04-30T00:32:01;13.43;;;11.95;;
27921;SDS011;15261;50.356;10.340;2023-04-30T00:34:27;13.65;;;12.38;;
27921;SDS011;15261;50.356;10.340;2023-04-30T00:36:52;13.55;;;12.25;;
27921;SDS011;15261;50.356;10.340;2023-04-30T00:39:18;13.15;;;11.95;;
27921;SDS011;15261;50.356;10.340;2023-04-30T00:41:43;15.57;;;13.02;;
27921;SDS011;15261;50.356;10.340;2023-04-30T00:44:09;16.23;;;12.85;;
27921;SDS011;15261;50.356;10.340;2023-04-30T00:46:35;16.50;;;13.25;;
27921;SDS011;15261;50.356;10.340;2023-04-30T00:49:00;14.63;;;13.23;;
27921;SDS011;15261;50.356;10.340;2023-04-30T00:51:28;14.38;;;13.07;;
27921;SDS011;15261;50.356;10.340;2023-04-30T00:53:56;17.10;;;13.30;;
27921;SDS011;15261;50.356;10.340;2023-04-30T00:56:24;14.90;;;13.70;;
27921;SDS011;15261;50.356;10.340;2023-04-30T00:58:50;16.33;;;14.52;;
27921;SDS011;15261;50.356;10.340;2023-04-30T01:49:29;16.67;;;15.07;;
27921;SDS011;15261;50.356;10.340;2023-04-30T03:19:56;15.10;;;13.30;;
27921;SDS011;15261;50.356;10.340;2023-04-30T03:29:17;17.75;;;13.38;;
27921;SDS011;15261;50.356;10.340;2023-04-30T03:31:43;16.90;;;13.95;;
27921;SDS011;15261;50.356;10.340;2023-04-30T03:34:09;18.45;;;15.25;;
27921;SDS011;15261;50.356;10.340;2023-04-30T03:36:35;16.92;;;14.57;;
27921;SDS011;15261;50.356;10.340;2023-04-30T03:39:01;14.77;;;13.25;;
27921;SDS011;15261;50.356;10.340;2023-04-30T03:41:26;14.55;;;13.07;;
27921;SDS011;15261;50.356;10.340;2023-04-30T03:43:52;15.80;;;14.23;;
27921;SDS011;15261;50.356;10.340;2023-04-30T03:46:18;16.63;;;14.68;;
27921;SDS011;15261;50.356;10.340;2023-04-30T03:48:44;15.65;;;14.00;;
27921;SDS011;15261;50.356;10.340;2023-04-30T03:51:09;16.25;;;14.55;;
27921;SDS011;15261;50.356;10.340;2023-04-30T03:53:35;16.73;;;14.23;;
27921;SDS011;15261;50.356;10.340;2023-04-30T03:56:01;14.75;;;13.35;;
27921;SDS011;15261;50.356;10.340;2023-04-30T03:58:27;14.35;;;12.85;;
27921;SDS011;15261;50.356;10.340;2023-04-30T04:00:53;15.13;;;13.70;;
27921;SDS011;15261;50.356;10.340;2023-04-30T04:03:19;13.88;;;12.43;;
27921;SDS011;15261;50.356;10.340;2023-04-30T04:05:45;14.02;;;12.55;;
27921;SDS011;15261;50.356;10.340;2023-04-30T04:08:11;16.70;;;15.05;;
27921;SDS011;15261;50.356;10.340;2023-04-30T04:10:38;15.75;;;14.25;;
27921;SDS011;15261;50.356;10.340;2023-04-30T04:13:04;15.32;;;13.73;;
27921;SDS011;15261;50.356;10.340;2023-04-30T04:15:30;17.02;;;13.48;;
27921;SDS011;15261;50.356;10.340;2023-04-30T04:17:56;16.50;;;14.25;;
27921;SDS011;15261;50.356;10.340;2023-04-30T04:20:22;14.38;;;12.98;;
27921;SDS011;15261;50.356;10.340;2023-04-30T04:22:47;15.07;;;13.57;;
27921;SDS011;15261;50.356;10.340;2023-04-30T04:25:13;15.82;;;14.27;;
27921;SDS011;15261;50.356;10.340;2023-04-30T04:27:39;13.68;;;12.38;;
27921;SDS011;15261;50.356;10.340;2023-04-30T04:30:05;15.70;;;13.88;;
27921;SDS011;15261;50.356;10.340;2023-04-30T04:32:36;15.45;;;13.85;;
27921;SDS011;15261;50.356;10.340;2023-04-30T04:35:12;16.13;;;14.43;;
27921;SDS011;15261;50.356;10.340;2023-04-30T04:37:39;14.93;;;12.65;;
27921;SDS011;15261;50.356;10.340;2023-04-30T04:40:04;14.30;;;12.88;;
27921;SDS011;15261;50.356;10.340;2023-04-30T04:42:31;14.73;;;13.23;;
27921;SDS011;15261;50.356;10.340;2023-04-30T04:44:56;15.13;;;13.73;;
27921;SDS011;15261;50.356;10.340;2023-04-30T04:47:22;16.80;;;15.18;;
27921;SDS011;15261;50.356;10.340;2023-04-30T04:49:48;17.02;;;15.00;;
27921;SDS011;15261;50.356;10.340;2023-04-30T04:52:14;14.63;;;13.13;;
27921;SDS011;15261;50.356;10.340;2023-04-30T04:54:39;16.90;;;13.68;;
27921;SDS011;15261;50.356;10.340;2023-04-30T04:57:05;14.35;;;12.90;;
27921;SDS011;15261;50.356;10.340;2023-04-30T04:59:31;14.10;;;12.65;;
27921;SDS011;15261;50.356;10.340;2023-04-30T05:01:56;14.18;;;12.45;;
27921;SDS011;15261;50.356;10.340;2023-04-30T05:04:22;14.60;;;12.65;;
27921;SDS011;15261;50.356;10.340;2023-04-30T05:06:47;13.15;;;11.95;;
27921;SDS011;15261;50.356;10.340;2023-04-30T05:09:13;14.00;;;11.90;;
27921;SDS011;15261;50.356;10.340;2023-04-30T05:11:39;14.30;;;12.90;;
27921;SDS011;15261;50.356;10.340;2023-04-30T05:14:05;15.40;;;13.77;;
27921;SDS011;15261;50.356;10.340;2023-04-30T05:16:31;13.63;;;12.32;;
27921;SDS011;15261;50.356;10.340;2023-04-30T05:18:57;14.27;;;12.50;;
27921;SDS011;15261;50.356;10.340;2023-04-30T05:21:23;13.75;;;12.32;;
27921;SDS011;15261;50.356;10.340;2023-04-30T05:23:53;15.52;;;13.60;;
27921;SDS011;15261;50.356;10.340;2023-04-30T05:26:18;14.35;;;12.48;;
27921;SDS011;15261;50.356;10.340;2023-04-30T05:28:44;14.68;;;12.90;;
27921;SDS011;15261;50.356;10.340;2023-04-30T05:31:10;13.73;;;12.50;;
27921;SDS011;15261;50.356;10.340;2023-04-30T05:33:35;14.75;;;12.95;;
27921;SDS011;15261;50.356;10.340;2023-04-30T05:36:01;14.68;;;13.30;;
27921;SDS011;15261;50.356;10.340;2023-04-30T05:38:27;15.02;;;13.00;;
27921;SDS011;15261;50.356;10.340;2023-04-30T05:40:52;14.73;;;12.95;;
27921;SDS011;15261;50.356;10.340;2023-04-30T05:43:18;14.15;;;12.75;;
27921;SDS011;15261;50.356;10.340;2023-04-30T05:45:44;17.42;;;12.52;;
27921;SDS011;15261;50.356;10.340;2023-04-30T05:48:10;14.00;;;11.73;;
27921;SDS011;15261;50.356;10.340;2023-04-30T05:50:35;12.82;;;11.52;;
27921;SDS011;15261;50.356;10.340;2023-04-30T05:53:01;13.48;;;12.05;;
27921;SDS011;15261;50.356;10.340;2023-04-30T05:55:28;14.18;;;12.80;;
27921;SDS011;15261;50.356;10.340;2023-04-30T06:00:50;12.30;;;11.20;;
27921;SDS011;15261;50.356;10.340;2023-04-30T06:03:19;12.38;;;11.07;;
27921;SDS011;15261;50.356;10.340;2023-04-30T06:05:45;10.50;;;9.52;;
27921;SDS011;15261;50.356;10.340;2023-04-30T06:08:11;9.85;;;8.95;;
27921;SDS011;15261;50.356;10.340;2023-04-30T06:10:37;11.13;;;9.93;;
27921;SDS011;15261;50.356;10.340;2023-04-30T06:13:03;9.75;;;8.75;;
27921;SDS011;15261;50.356;10.340;2023-04-30T06:15:30;10.27;;;8.27;;
27921;SDS011;15261;50.356;10.340;2023-04-30T06:17:55;8.88;;;7.95;;
27921;SDS011;15261;50.356;10.340;2023-04-30T06:23:21;9.20;;;8.07;;
27921;SDS011;15261;50.356;10.340;2023-04-30T06:25:55;8.50;;;7.43;;
27921;SDS011;15261;50.356;10.340;2023-04-30T06:28:23;8.38;;;7.68;;
27921;SDS011;15261;50.356;10.340;2023-04-30T06:30:52;7.78;;;6.90;;
27921;SDS011;15261;50.356;10.340;2023-04-30T06:33:19;8.00;;;7.30;;
27921;SDS011;15261;50.356;10.340;2023-04-30T06:35:49;7.80;;;6.72;;
27921;SDS011;15261;50.356;10.340;2023-04-30T06:38:18;7.65;;;5.93;;
27921;SDS011;15261;50.356;10.340;2023-04-30T06:40:46;6.53;;;5.63;;
27921;SDS011;15261;50.356;10.340;2023-04-30T06:43:11;5.95;;;5.35;;
27921;SDS011;15261;50.356;10.340;2023-04-30T06:45:37;7.68;;;6.45;;
27921;SDS011;15261;50.356;10.340;2023-04-30T06:48:03;7.53;;;5.93;;
27921;SDS011;15261;50.356;10.340;2023-04-30T06:50:29;6.82;;;5.70;;
27921;SDS011;15261;50.356;10.340;2023-04-30T06:52:55;8.27;;;6.40;;
27921;SDS011;15261;50.356;10.340;2023-04-30T06:55:20;6.82;;;6.10;;
27921;SDS011;15261;50.356;10.340;2023-04-30T06:57:46;9.05;;;6.20;;
27921;SDS011;15261;50.356;10.340;2023-04-30T07:00:12;7.15;;;6.45;;
27921;SDS011;15261;50.356;10.340;2023-04-30T07:02:39;6.32;;;5.80;;
27921;SDS011;15261;50.356;10.340;2023-04-30T07:05:05;13.32;;;6.03;;
27921;SDS011;15261;50.356;10.340;2023-04-30T07:07:31;16.42;;;6.28;;
27921;SDS011;15261;50.356;10.340;2023-04-30T07:09:57;24.33;;;6.72;;
27921;SDS011;15261;50.356;10.340;2023-04-30T07:12:29;8.65;;;5.78;;
27921;SDS011;15261;50.356;10.340;2023-04-30T07:14:55;13.70;;;5.90;;
27921;SDS011;15261;50.356;10.340;2023-04-30T07:17:20;10.40;;;5.50;;
27921;SDS011;15261;50.356;10.340;2023-04-30T07:19:46;6.15;;;5.13;;
27921;SDS011;15261;50.356;10.340;2023-04-30T07:22:12;5.72;;;5.10;;
27921;SDS011;15261;50.356;10.340;2023-04-30T07:24:41;6.85;;;5.25;;
27921;SDS011;15261;50.356;10.340;2023-04-30T07:29:59;6.30;;;5.20;;
27921;SDS011;15261;50.356;10.340;2023-04-30T07:32:25;6.93;;;5.55;;
27921;SDS011;15261;50.356;10.340;2023-04-30T07:34:51;5.47;;;4.88;;
27921;SDS011;15261;50.356;10.340;2023-04-30T07:37:17;7.13;;;5.30;;
27921;SDS011;15261;50.356;10.340;2023-04-30T07:39:43;6.40;;;4.40;;
27921;SDS011;15261;50.356;10.340;2023-04-30T07:45:01;6.40;;;4.80;;
27921;SDS011;15261;50.356;10.340;2023-04-30T07:47:28;5.05;;;4.55;;
27921;SDS011;15261;50.356;10.340;2023-04-30T07:49:54;5.38;;;4.40;;
27921;SDS011;15261;50.356;10.340;2023-04-30T07:52:21;4.75;;;4.43;;
27921;SDS011;15261;50.356;10.340;2023-04-30T07:54:46;5.00;;;4.60;;
27921;SDS011;15261;50.356;10.340;2023-04-30T07:57:12;4.70;;;4.25;;
27921;SDS011;15261;50.356;10.340;2023-04-30T07:59:37;7.10;;;4.10;;
27921;SDS011;15261;50.356;10.340;2023-04-30T08:02:03;5.38;;;3.30;;
27921;SDS011;15261;50.356;10.340;2023-04-30T08:04:29;4.97;;;3.72;;
27921;SDS011;15261;50.356;10.340;2023-04-30T08:06:55;7.63;;;3.70;;
27921;SDS011;15261;50.356;10.340;2023-04-30T08:09:20;3.55;;;3.25;;
27921;SDS011;15261;50.356;10.340;2023-04-30T08:11:46;5.90;;;3.97;;
27921;SDS011;15261;50.356;10.340;2023-04-30T08:14:11;6.78;;;2.90;;
27921;SDS011;15261;50.356;10.340;2023-04-30T08:16:37;4.47;;;2.60;;
27921;SDS011;15261;50.356;10.340;2023-04-30T08:19:02;4.07;;;2.75;;
27921;SDS011;15261;50.356;10.340;2023-04-30T08:21:29;3.53;;;2.55;;
27921;SDS011;15261;50.356;10.340;2023-04-30T08:23:55;6.35;;;2.63;;
27921;SDS011;15261;50.356;10.340;2023-04-30T08:26:21;2.70;;;2.50;;
27921;SDS011;15261;50.356;10.340;2023-04-30T08:28:47;2.83;;;2.42;;
27921;SDS011;15261;50.356;10.340;2023-04-30T08:31:13;2.45;;;2.35;;
27921;SDS011;15261;50.356;10.340;2023-04-30T08:33:39;2.90;;;2.40;;
27921;SDS011;15261;50.356;10.340;2023-04-30T08:36:05;4.18;;;2.30;;
27921;SDS011;15261;50.356;10.340;2023-04-30T08:38:30;2.17;;;1.90;;
27921;SDS011;15261;50.356;10.340;2023-04-30T08:41:12;2.00;;;1.83;;
27921;SDS011;15261;50.356;10.340;2023-04-30T08:43:39;2.10;;;2.00;;
27921;SDS011;15261;50.356;10.340;2023-04-30T08:46:05;1.85;;;1.75;;
27921;SDS011;15261;50.356;10.340;2023-04-30T08:48:31;1.77;;;1.67;;
27921;SDS011;15261;50.356;10.340;2023-04-30T08:51:01;1.92;;;1.83;;
27921;SDS011;15261;50.356;10.340;2023-04-30T08:53:28;1.58;;;1.40;;
27921;SDS011;15261;50.356;10.340;2023-04-30T08:55:55;1.10;;;1.10;;
27921;SDS011;15261;50.356;10.340;2023-04-30T08:58:21;0.90;;;0.90;;
27921;SDS011;15261;50.356;10.340;2023-04-30T09:00:47;1.05;;;1.00;;
27921;SDS011;15261;50.356;10.340;2023-04-30T09:03:12;1.35;;;1.25;;
27921;SDS011;15261;50.356;10.340;2023-04-30T09:05:38;3.83;;;1.25;;
27921;SDS011;15261;50.356;10.340;2023-04-30T09:08:05;1.40;;;1.30;;
27921;SDS011;15261;50.356;10.340;2023-04-30T09:10:35;4.13;;;1.40;;
27921;SDS011;15261;50.356;10.340;2023-04-30T09:13:02;0.85;;;0.85;;
27921;SDS011;15261;50.356;10.340;2023-04-30T09:15:32;0.70;;;0.70;;
27921;SDS011;15261;50.356;10.340;2023-04-30T09:18:12;0.80;;;0.80;;
27921;SDS011;15261;50.356;10.340;2023-04-30T09:23:19;1.25;;;1.10;;
27921;SDS011;15261;50.356;10.340;2023-04-30T09:25:45;1.15;;;1.05;;
27921;SDS011;15261;50.356;10.340;2023-04-30T09:28:11;3.00;;;1.00;;
27921;SDS011;15261;50.356;10.340;2023-04-30T09:30:41;3.35;;;1.10;;
27921;SDS011;15261;50.356;10.340;2023-04-30T09:33:07;1.40;;;1.30;;
27921;SDS011;15261;50.356;10.340;2023-04-30T09:35:33;1.40;;;1.40;;
27921;SDS011;15261;50.356;10.340;2023-04-30T09:38:00;1.33;;;1.33;;
27921;SDS011;15261;50.356;10.340;2023-04-30T09:40:40;1.27;;;1.27;;
27921;SDS011;15261;50.356;10.340;2023-04-30T09:43:07;1.50;;;1.40;;
27921;SDS011;15261;50.356;10.340;2023-04-30T09:45:43;2.15;;;1.30;;
27921;SDS011;15261;50.356;10.340;2023-04-30T09:48:15;2.85;;;1.30;;
27921;SDS011;15261;50.356;10.340;2023-04-30T09:50:42;2.08;;;1.52;;
27921;SDS011;15261;50.356;10.340;2023-04-30T09:53:09;1.70;;;1.48;;
27921;SDS011;15261;50.356;10.340;2023-04-30T09:55:38;2.45;;;1.60;;
27921;SDS011;15261;50.356;10.340;2023-04-30T09:58:08;2.08;;;1.63;;
27921;SDS011;15261;50.356;10.340;2023-04-30T10:00:36;6.13;;;1.55;;
27921;SDS011;15261;50.356;10.340;2023-04-30T10:03:07;1.38;;;1.27;;
27921;SDS011;15261;50.356;10.340;2023-04-30T10:05:35;3.63;;;1.50;;
27921;SDS011;15261;50.356;10.340;2023-04-30T10:08:04;2.42;;;1.60;;
27921;SDS011;15261;50.356;10.340;2023-04-30T10:10:34;1.80;;;1.70;;
27921;SDS011;15261;50.356;10.340;2023-04-30T10:13:03;2.35;;;2.15;;
27921;SDS011;15261;50.356;10.340;2023-04-30T10:15:34;1.70;;;1.60;;
27921;SDS011;15261;50.356;10.340;2023-04-30T10:18:05;2.60;;;1.60;;
27921;SDS011;15261;50.356;10.340;2023-04-30T10:20:35;2.55;;;1.50;;
27921;SDS011;15261;50.356;10.340;2023-04-30T10:23:03;2.47;;;1.42;;
27921;SDS011;15261;50.356;10.340;2023-04-30T10:25:32;1.70;;;1.50;;
27921;SDS011;15261;50.356;10.340;2023-04-30T10:27:58;1.38;;;1.33;;
27921;SDS011;15261;50.356;10.340;2023-04-30T10:30:24;1.33;;;1.23;;
27921;SDS011;15261;50.356;10.340;2023-04-30T10:35:48;1.33;;;1.23;;
27921;SDS011;15261;50.356;10.340;2023-04-30T10:38:21;1.40;;;1.30;;
27921;SDS011;15261;50.356;10.340;2023-04-30T10:40:49;1.15;;;1.15;;
27921;SDS011;15261;50.356;10.340;2023-04-30T10:43:18;1.20;;;1.10;;
27921;SDS011;15261;50.356;10.340;2023-04-30T10:45:46;1.45;;;1.35;;
27921;SDS011;15261;50.356;10.340;2023-04-30T10:48:13;1.45;;;1.40;;
27921;SDS011;15261;50.356;10.340;2023-04-30T10:50:41;3.58;;;1.40;;
27921;SDS011;15261;50.356;10.340;2023-04-30T10:53:11;1.17;;;1.15;;
27921;SDS011;15261;50.356;10.340;2023-04-30T10:55:51;1.20;;;1.20;;
27921;SDS011;15261;50.356;10.340;2023-04-30T10:58:22;1.58;;;1.33;;
27921;SDS011;15261;50.356;10.340;2023-04-30T11:01:08;1.40;;;1.30;;
27921;SDS011;15261;50.356;10.340;2023-04-30T11:03:36;1.50;;;1.40;;
27921;SDS011;15261;50.356;10.340;2023-04-30T11:08:38;1.40;;;1.30;;
27921;SDS011;15261;50.356;10.340;2023-04-30T11:11:09;1.40;;;1.30;;
27921;SDS011;15261;50.356;10.340;2023-04-30T11:13:45;1.42;;;1.33;;
27921;SDS011;15261;50.356;10.340;2023-04-30T11:16:16;1.23;;;1.23;;
27921;SDS011;15261;50.356;10.340;2023-04-30T11:18:45;3.22;;;2.58;;
27921;SDS011;15261;50.356;10.340;2023-04-30T11:21:11;2.03;;;1.70;;
27921;SDS011;15261;50.356;10.340;2023-04-30T11:23:41;2.92;;;2.20;;
27921;SDS011;15261;50.356;10.340;2023-04-30T11:26:07;2.03;;;1.83;;
27921;SDS011;15261;50.356;10.340;2023-04-30T11:28:34;1.20;;;1.20;;
27921;SDS011;15261;50.356;10.340;2023-04-30T11:31:01;3.08;;;2.85;;
27921;SDS011;15261;50.356;10.340;2023-04-30T11:35:57;3.53;;;3.33;;
27921;SDS011;15261;50.356;10.340;2023-04-30T11:38:42;1.50;;;1.40;;
27921;SDS011;15261;50.356;10.340;2023-04-30T11:41:12;7.93;;;7.18;;
27921;SDS011;15261;50.356;10.340;2023-04-30T11:43:38;2.03;;;1.42;;
27921;SDS011;15261;50.356;10.340;2023-04-30T11:48:54;2.60;;;1.50;;
27921;SDS011;15261;50.356;10.340;2023-04-30T11:51:22;1.60;;;1.50;;
27921;SDS011;15261;50.356;10.340;2023-04-30T11:53:49;1.63;;;1.52;;
27921;SDS011;15261;50.356;10.340;2023-04-30T11:56:16;1.52;;;1.40;;
27921;SDS011;15261;50.356;10.340;2023-04-30T11:58:45;1.45;;;1.35;;
27921;SDS011;15261;50.356;10.340;2023-04-30T12:01:10;1.30;;;1.30;;
27921;SDS011;15261;50.356;10.340;2023-04-30T12:03:49;2.15;;;1.38;;
27921;SDS011;15261;50.356;10.340;2023-04-30T12:06:24;1.40;;;1.40;;
27921;SDS011;15261;50.356;10.340;2023-04-30T12:08:58;1.50;;;1.40;;
27921;SDS011;15261;50.356;10.340;2023-04-30T12:11:33;1.55;;;1.45;;
27921;SDS011;15261;50.356;10.340;2023-04-30T12:14:04;1.40;;;1.30;;
27921;SDS011;15261;50.356;10.340;2023-04-30T12:19:19;1.40;;;1.40;;
27921;SDS011;15261;50.356;10.340;2023-04-30T12:21:46;1.20;;;1.20;;
27921;SDS011;15261;50.356;10.340;2023-04-30T12:24:14;1.95;;;1.50;;
27921;SDS011;15261;50.356;10.340;2023-04-30T12:26:41;2.33;;;1.35;;
27921;SDS011;15261;50.356;10.340;2023-04-30T12:29:07;2.22;;;1.50;;
27921;SDS011;15261;50.356;10.340;2023-04-30T12:31:35;1.40;;;1.20;;
27921;SDS011;15261;50.356;10.340;2023-04-30T12:34:02;1.70;;;1.60;;
27921;SDS011;15261;50.356;10.340;2023-04-30T12:36:29;1.50;;;1.40;;
27921;SDS011;15261;50.356;10.340;2023-04-30T12:39:14;1.65;;;1.40;;
27921;SDS011;15261;50.356;10.340;2023-04-30T12:41:44;2.42;;;1.70;;
27921;SDS011;15261;50.356;10.340;2023-04-30T12:44:18;2.22;;;1.40;;
27921;SDS011;15261;50.356;10.340;2023-04-30T12:46:45;1.70;;;1.50;;
27921;SDS011;15261;50.356;10.340;2023-04-30T12:49:20;1.50;;;1.40;;
27921;SDS011;15261;50.356;10.340;2023-04-30T12:57:35;1.10;;;1.10;;
27921;SDS011;15261;50.356;10.340;2023-04-30T13:00:12;1.10;;;1.10;;
27921;SDS011;15261;50.356;10.340;2023-04-30T13:02:39;1.20;;;1.20;;
27921;SDS011;15261;50.356;10.340;2023-04-30T13:05:04;1.35;;;1.25;;
27921;SDS011;15261;50.356;10.340;2023-04-30T13:07:36;1.17;;;1.13;;
27921;SDS011;15261;50.356;10.340;2023-04-30T13:10:04;1.13;;;1.10;;
27921;SDS011;15261;50.356;10.340;2023-04-30T13:12:31;0.90;;;0.90;;
27921;SDS011;15261;50.356;10.340;2023-04-30T13:14:56;0.90;;;0.90;;
27921;SDS011;15261;50.356;10.340;2023-04-30T13:17:22;1.00;;;1.00;;
27921;SDS011;15261;50.356;10.340;2023-04-30T13:19:48;0.93;;;0.93;;
27921;SDS011;15261;50.356;10.340;2023-04-30T13:22:14;9.43;;;1.40;;
27921;SDS011;15261;50.356;10.340;2023-04-30T13:24:39;1.17;;;1.13;;
27921;SDS011;15261;50.356;10.340;2023-04-30T13:27:05;1.05;;;1.00;;
27921;SDS011;15261;50.356;10.340;2023-04-30T13:29:31;2.45;;;1.35;;
27921;SDS011;15261;50.356;10.340;2023-04-30T13:31:57;2.25;;;1.10;;
27921;SDS011;15261;50.356;10.340;2023-04-30T13:34:23;2.35;;;1.20;;
27921;SDS011;15261;50.356;10.340;2023-04-30T13:36:49;1.42;;;1.33;;
27921;SDS011;15261;50.356;10.340;2023-04-30T13:39:16;1.35;;;1.35;;
27921;SDS011;15261;50.356;10.340;2023-04-30T13:41:41;1.80;;;1.40;;
27921;SDS011;15261;50.356;10.340;2023-04-30T13:44:07;1.50;;;1.38;;
27921;SDS011;15261;50.356;10.340;2023-04-30T13:46:32;1.38;;;1.27;;
27921;SDS011;15261;50.356;10.340;2023-04-30T13:48:58;1.33;;;1.23;;
27921;SDS011;15261;50.356;10.340;2023-04-30T13:51:24;1.10;;;1.10;;
27921;SDS011;15261;50.356;10.340;2023-04-30T13:53:51;1.40;;;1.30;;
27921;SDS011;15261;50.356;10.340;2023-04-30T13:56:16;1.48;;;1.38;;
27921;SDS011;15261;50.356;10.340;2023-04-30T13:58:42;1.30;;;1.10;;
27921;SDS011;15261;50.356;10.340;2023-04-30T14:01:08;2.75;;;1.60;;
27921;SDS011;15261;50.356;10.340;2023-04-30T14:03:34;1.40;;;1.30;;
27921;SDS011;15261;50.356;10.340;2023-04-30T14:05:59;1.40;;;1.40;;
27921;SDS011;15261;50.356;10.340;2023-04-30T14:08:25;1.38;;;1.27;;
27921;SDS011;15261;50.356;10.340;2023-04-30T14:10:51;1.63;;;1.42;;
27921;SDS011;15261;50.356;10.340;2023-04-30T14:13:17;2.67;;;1.35;;
27921;SDS011;15261;50.356;10.340;2023-04-30T14:15:42;1.40;;;1.30;;
27921;SDS011;15261;50.356;10.340;2023-04-30T14:18:08;1.10;;;1.10;;
27921;SDS011;15261;50.356;10.340;2023-04-30T14:20:33;1.48;;;1.27;;
27921;SDS011;15261;50.356;10.340;2023-04-30T14:22:59;1.40;;;1.38;;
27921;SDS011;15261;50.356;10.340;2023-04-30T14:25:25;1.20;;;1.20;;
27921;SDS011;15261;50.356;10.340;2023-04-30T14:27:51;1.30;;;1.20;;
27921;SDS011;15261;50.356;10.340;2023-04-30T14:30:17;1.70;;;1.60;;
27921;SDS011;15261;50.356;10.340;2023-04-30T14:32:44;1.40;;;1.40;;
27921;SDS011;15261;50.356;10.340;2023-04-30T14:35:09;2.22;;;1.33;;
27921;SDS011;15261;50.356;10.340;2023-04-30T14:37:35;2.72;;;1.40;;
27921;SDS011;15261;50.356;10.340;2023-04-30T14:40:01;3.10;;;1.40;;
27921;SDS011;15261;50.356;10.340;2023-04-30T14:42:26;1.30;;;1.30;;
27921;SDS011;15261;50.356;10.340;2023-04-30T14:44:52;1.67;;;1.40;;
27921;SDS011;15261;50.356;10.340;2023-04-30T14:47:18;1.63;;;1.50;;
27921;SDS011;15261;50.356;10.340;2023-04-30T14:49:46;1.80;;;1.70;;
27921;SDS011;15261;50.356;10.340;2023-04-30T14:52:14;1.20;;;1.20;;
27921;SDS011;15261;50.356;10.340;2023-04-30T14:54:40;1.40;;;1.40;;
27921;SDS011;15261;50.356;10.340;2023-04-30T14:57:05;1.77;;;1.42;;
27921;SDS011;15261;50.356;10.340;2023-04-30T14:59:31;2.67;;;1.48;;
27921;SDS011;15261;50.356;10.340;2023-04-30T15:01:58;1.13;;;1.00;;
27921;SDS011;15261;50.356;10.340;2023-04-30T15:04:24;1.38;;;1.27;;
27921;SDS011;15261;50.356;10.340;2023-04-30T15:06:50;1.10;;;1.10;;
27921;SDS011;15261;50.356;10.340;2023-04-30T15:09:16;2.50;;;1.30;;
27921;SDS011;15261;50.356;10.340;2023-04-30T15:11:41;3.03;;;1.27;;
27921;SDS011;15261;50.356;10.340;2023-04-30T15:14:07;1.20;;;1.20;;
27921;SDS011;15261;50.356;10.340;2023-04-30T15:16:33;2.28;;;1.52;;
27921;SDS011;15261;50.356;10.340;2023-04-30T15:18:59;1.30;;;1.20;;
27921;SDS011;15261;50.356;10.340;2023-04-30T15:21:25;1.20;;;1.20;;
27921;SDS011;15261;50.356;10.340;2023-04-30T15:23:52;2.78;;;1.30;;
27921;SDS011;15261;50.356;10.340;2023-04-30T15:26:18;1.35;;;1.25;;
27921;SDS011;15261;50.356;10.340;2023-04-30T15:28:45;2.67;;;1.38;;
27921;SDS011;15261;50.356;10.340;2023-04-30T15:31:11;1.00;;;1.00;;
27921;SDS011;15261;50.356;10.340;2023-04-30T15:33:37;3.30;;;1.20;;
27921;SDS011;15261;50.356;10.340;2023-04-30T15:36:06;1.20;;;1.10;;
27921;SDS011;15261;50.356;10.340;2023-04-30T15:38:33;1.33;;;1.15;;
27921;SDS011;15261;50.356;10.340;2023-04-30T15:40:59;1.10;;;1.10;;
27921;SDS011;15261;50.356;10.340;2023-04-30T15:43:24;1.15;;;1.13;;
27921;SDS011;15261;50.356;10.340;2023-04-30T15:45:50;2.45;;;1.20;;
27921;SDS011;15261;50.356;10.340;2023-04-30T15:48:15;1.50;;;1.30;;
27921;SDS011;15261;50.356;10.340;2023-04-30T15:50:41;1.58;;;1.20;;
27921;SDS011;15261;50.356;10.340;2023-04-30T15:53:07;15.35;;;2.55;;
27921;SDS011;15261;50.356;10.340;2023-04-30T15:55:33;1.42;;;1.33;;
27921;SDS011;15261;50.356;10.340;2023-04-30T15:57:58;2.55;;;1.20;;
27921;SDS011;15261;50.356;10.340;2023-04-30T16:00:24;2.10;;;1.90;;
27921;SDS011;15261;50.356;10.340;2023-04-30T16:02:51;2.60;;;2.22;;
27921;SDS011;15261;50.356;10.340;2023-04-30T16:05:16;2.35;;;1.92;;
27921;SDS011;15261;50.356;10.340;2023-04-30T16:07:43;3.15;;;1.40;;
27921;SDS011;15261;50.356;10.340;2023-04-30T16:10:09;2.47;;;1.20;;
27921;SDS011;15261;50.356;10.340;2023-04-30T16:12:35;1.33;;;1.23;;
27921;SDS011;15261;50.356;10.340;2023-04-30T16:15:04;1.45;;;1.30;;
27921;SDS011;15261;50.356;10.340;2023-04-30T16:17:30;2.33;;;1.08;;
27921;SDS011;15261;50.356;10.340;2023-04-30T16:19:57;1.83;;;1.30;;
27921;SDS011;15261;50.356;10.340;2023-04-30T16:22:24;0.98;;;0.98;;
27921;SDS011;15261;50.356;10.340;2023-04-30T16:24:51;1.60;;;1.40;;
27921;SDS011;15261;50.356;10.340;2023-04-30T16:27:17;1.58;;;1.42;;
27921;SDS011;15261;50.356;10.340;2023-04-30T16:29:45;4.22;;;3.22;;
27921;SDS011;15261;50.356;10.340;2023-04-30T16:32:11;3.78;;;2.40;;
27921;SDS011;15261;50.356;10.340;2023-04-30T16:34:37;2.90;;;1.52;;
27921;SDS011;15261;50.356;10.340;2023-04-30T16:37:03;2.97;;;2.72;;
27921;SDS011;15261;50.356;10.340;2023-04-30T16:39:29;1.90;;;1.80;;
27921;SDS011;15261;50.356;10.340;2023-04-30T16:41:55;2.30;;;1.85;;
27921;SDS011;15261;50.356;10.340;2023-04-30T16:44:21;4.88;;;4.38;;
27921;SDS011;15261;50.356;10.340;2023-04-30T16:46:46;4.82;;;3.53;;
27921;SDS011;15261;50.356;10.340;2023-04-30T16:49:13;2.65;;;1.73;;
27921;SDS011;15261;50.356;10.340;2023-04-30T16:51:39;4.88;;;1.60;;
27921;SDS011;15261;50.356;10.340;2023-04-30T16:54:05;2.10;;;1.67;;
27921;SDS011;15261;50.356;10.340;2023-04-30T16:56:30;2.63;;;2.42;;
27921;SDS011;15261;50.356;10.340;2023-04-30T16:58:56;2.72;;;1.95;;
27921;SDS011;15261;50.356;10.340;2023-04-30T17:01:22;1.30;;;1.20;;
27921;SDS011;15261;50.356;10.340;2023-04-30T17:03:47;1.33;;;0.98;;
27921;SDS011;15261;50.356;10.340;2023-04-30T17:06:14;1.63;;;1.10;;
27921;SDS011;15261;50.356;10.340;2023-04-30T17:08:40;2.13;;;1.20;;
27921;SDS011;15261;50.356;10.340;2023-04-30T17:11:06;3.00;;;2.30;;
27921;SDS011;15261;50.356;10.340;2023-04-30T17:13:33;2.40;;;1.83;;
27921;SDS011;15261;50.356;10.340;2023-04-30T17:16:00;2.15;;;1.40;;
27921;SDS011;15261;50.356;10.340;2023-04-30T17:18:26;1.83;;;1.40;;
27921;SDS011;15261;50.356;10.340;2023-04-30T17:20:53;1.20;;;0.85;;
27921;SDS011;15261;50.356;10.340;2023-04-30T17:23:19;1.27;;;1.00;;
27921;SDS011;15261;50.356;10.340;2023-04-30T17:25:49;1.10;;;0.93;;
27921;SDS011;15261;50.356;10.340;2023-04-30T17:28:19;1.10;;;1.10;;